Weather History for Kearney, NE

Change the Weather History Date:

Sunday, January 20, 2013

  Actual Average Record
Temperature  
Mean Temperature 23 °F 25 °F  
Max Temperature 28 °F 36 °F 68 °F (1944)
Min Temperature 18 °F 13 °F -20 °F (1943)
Degree Days  
Heating Degree Days 42 40  
Cooling Degree Days 0 0  
Moisture  
Dew Point 15 °F    
Average Humidity 73    
Maximum Humidity 88    
Minimum Humidity 58    
Precipitation  
Precipitation 0.00 in - 0.32 in (1990)
Sea Level Pressure  
Sea Level Pressure 30.30 in    
Wind  
Wind Speed 6 mph (ENE)    
Max Wind Speed 16 mph    
Max Gust Speed -    
Visibility 10 miles    
Events      
T = Trace of Precipitation, MM = Missing Value Source: NWS Daily Summary

Daily Weather History Graph

Daily Weather History Graph

Search for Another Location

Airport:

Trip Planner

Search our weather history database for the weather conditions in past years. The results will help you decide how hot, cold, wet, or windy it might be!

Date:

Astronomy

Jan. 20, 2013 Rise Set
Actual Time 7:55 AM CST 5:39 PM CST
Civil Twilight 7:25 AM CST 6:09 PM CST
Nautical Twilight 6:52 AM CST 6:42 PM CST
Astronomical Twilight 6:19 AM CST 7:15 PM CST
Moon 12:41 PM CST 2:28 AM CST
Length of Visible Light 10h 43m
Length of Day
9h 44m
Waxing Gibbous, 66% of the Moon is Illuminated
Jan 20
Waxing Gibbous
Jan 26
Full
Feb 3
Last Quarter
Feb 10
New
Feb 17
First Quarter

Hourly Weather History & Observations

Time (CST) Temp. Windchill Dew Point Humidity Pressure Visibility Wind Dir Wind Speed Gust Speed Precip Events Conditions
12:15 AM 26.6 °F 17.5 °F 21.2 °F 80% 30.29 in 10.0 mi NE 9.2 mph - N/A   Clear
12:35 AM 24.8 °F 16.9 °F 21.2 °F 86% 30.28 in 10.0 mi NE 6.9 mph - N/A   Clear
12:55 AM 24.8 °F 16.9 °F 21.2 °F 86% 30.28 in 10.0 mi NE 6.9 mph - N/A   Clear
1:15 AM 24.8 °F 16.1 °F 19.4 °F 80% 30.27 in 10.0 mi NE 8.1 mph - N/A   Clear
1:35 AM 24.8 °F 16.1 °F 19.4 °F 80% 30.26 in 10.0 mi NE 8.1 mph - N/A   Clear
1:55 AM 23.0 °F 15.8 °F 19.4 °F 86% 30.27 in 10.0 mi ENE 5.8 mph - N/A   Clear
2:15 AM 23.0 °F 17.0 °F 17.6 °F 80% 30.27 in 10.0 mi East 4.6 mph - N/A   Clear
2:35 AM 23.0 °F 15.8 °F 17.6 °F 80% 30.27 in 10.0 mi East 5.8 mph - N/A   Clear
2:55 AM 21.2 °F 13.6 °F 17.6 °F 86% 30.27 in 10.0 mi ENE 5.8 mph - N/A   Clear
3:15 AM 21.2 °F 16.4 °F 17.6 °F 86% 30.28 in 10.0 mi ENE 3.5 mph - N/A   Clear
3:35 AM 21.2 °F 13.6 °F 17.6 °F 86% 30.26 in 10.0 mi ENE 5.8 mph - N/A   Clear
3:55 AM 21.2 °F 14.9 °F 15.8 °F 80% 30.26 in 10.0 mi ENE 4.6 mph - N/A   Clear
4:15 AM 21.2 °F 13.6 °F 15.8 °F 80% 30.25 in 10.0 mi ENE 5.8 mph - N/A   Clear
4:35 AM 19.4 °F 11.5 °F 17.6 °F 93% 30.24 in 10.0 mi East 5.8 mph - N/A   Clear
4:55 AM 19.4 °F 10.4 °F 15.8 °F 86% 30.23 in 10.0 mi East 6.9 mph - N/A   Clear
5:15 AM 21.2 °F 13.6 °F 15.8 °F 80% 30.23 in 10.0 mi East 5.8 mph - N/A   Clear
5:35 AM 19.4 °F 11.5 °F 15.8 °F 86% 30.23 in 10.0 mi East 5.8 mph - N/A   Clear
5:55 AM 19.4 °F 12.8 °F 15.8 °F 86% 30.23 in 10.0 mi ESE 4.6 mph - N/A   Clear
6:15 AM 19.4 °F 11.5 °F 15.8 °F 86% 30.22 in 10.0 mi ESE 5.8 mph - N/A   Clear
6:35 AM 19.4 °F 10.4 °F 15.8 °F 86% 30.24 in 10.0 mi SSE 6.9 mph - N/A   Clear
6:55 AM 19.4 °F 11.5 °F 15.8 °F 86% 30.24 in 10.0 mi SE 5.8 mph - N/A   Clear
7:15 AM 17.6 °F 9.3 °F 15.8 °F 93% 30.24 in 10.0 mi SE 5.8 mph - N/A   Clear
7:35 AM 17.6 °F 10.7 °F 14.0 °F 86% 30.23 in 10.0 mi SE 4.6 mph - N/A   Clear
7:55 AM 17.6 °F 10.7 °F 12.2 °F 79% 30.24 in 10.0 mi South 4.6 mph - N/A   Clear
8:15 AM 17.6 °F 12.3 °F 15.8 °F 93% 30.25 in 10.0 mi South 3.5 mph - N/A   Clear
8:35 AM 19.4 °F 14.3 °F 15.8 °F 86% 30.24 in 10.0 mi SE 3.5 mph - N/A   Clear
8:55 AM 21.2 °F - 17.6 °F 86% 30.26 in 10.0 mi Calm Calm - N/A   Clear
9:15 AM 21.2 °F 14.9 °F 15.8 °F 80% 30.27 in 10.0 mi East 4.6 mph - N/A   Clear
9:35 AM 21.2 °F 13.6 °F 15.8 °F 80% 30.27 in 10.0 mi East 5.8 mph - N/A   Clear
9:55 AM 21.2 °F 16.4 °F 15.8 °F 80% 30.28 in 10.0 mi SE 3.5 mph - N/A   Clear
10:15 AM 23.0 °F 18.4 °F 15.8 °F 74% 30.29 in 10.0 mi ESE 3.5 mph - N/A   Clear
10:35 AM 23.0 °F - 15.8 °F 74% 30.31 in 10.0 mi Calm Calm - N/A   Clear
10:55 AM 24.8 °F 20.5 °F 15.8 °F 69% 30.32 in 10.0 mi ENE 3.5 mph - N/A   Clear
11:15 AM 24.8 °F 19.1 °F 15.8 °F 69% 30.32 in 10.0 mi East 4.6 mph - N/A   Clear
11:35 AM 26.6 °F 20.0 °F 17.6 °F 69% 30.32 in 10.0 mi East 5.8 mph - N/A   Clear
11:55 AM 26.6 °F - 15.8 °F 64% 30.32 in 10.0 mi Calm Calm - N/A   Clear
12:15 PM 26.6 °F - 15.8 °F 64% 30.32 in 10.0 mi Calm Calm - N/A   Partly Cloudy
12:35 PM 26.6 °F - 15.8 °F 64% 30.31 in 10.0 mi Calm Calm - N/A   Clear
12:55 PM 28.4 °F 21.2 °F 15.8 °F 59% 30.30 in 10.0 mi ENE 6.9 mph - N/A   Clear
1:15 PM 28.4 °F - 14.0 °F 55% 30.29 in 10.0 mi Calm Calm - N/A   Clear
1:35 PM 28.4 °F 21.2 °F 14.0 °F 55% 30.29 in 10.0 mi NNE 6.9 mph - N/A   Mostly Cloudy
1:55 PM 28.4 °F 21.2 °F 15.8 °F 59% 30.28 in 10.0 mi North 6.9 mph - N/A   Overcast
2:15 PM 28.4 °F 21.2 °F 15.8 °F 59% 30.28 in 10.0 mi NE 6.9 mph - N/A   Overcast
2:35 PM 28.4 °F 18.0 °F 15.8 °F 59% 30.30 in 10.0 mi ENE 12.7 mph - N/A   Overcast
2:55 PM 26.6 °F 16.2 °F 15.8 °F 64% 30.31 in 10.0 mi ENE 11.5 mph - N/A   Overcast
3:15 PM 26.6 °F 14.7 °F 14.0 °F 59% 30.31 in 10.0 mi NE 15.0 mph - N/A   Overcast
3:35 PM 26.6 °F 13.8 °F 12.2 °F 55% 30.32 in 10.0 mi NNE 17.3 mph - N/A   Overcast
3:55 PM 24.8 °F 11.9 °F 12.2 °F 59% 30.32 in 10.0 mi NNE 16.1 mph - N/A   Overcast
4:15 PM 24.8 °F 12.9 °F 12.2 °F 59% 30.32 in 10.0 mi NNE 13.8 mph - N/A   Overcast
4:35 PM 24.8 °F 13.4 °F 14.0 °F 64% 30.33 in 10.0 mi NNE 12.7 mph - N/A   Mostly Cloudy
4:55 PM 24.8 °F 13.4 °F 14.0 °F 64% 30.33 in 10.0 mi NNE 12.7 mph - N/A   Overcast
5:15 PM 24.8 °F 11.9 °F 14.0 °F 64% 30.34 in 10.0 mi North 16.1 mph - N/A   Overcast
5:35 PM 21.2 °F 8.3 °F 12.2 °F 68% 30.35 in 10.0 mi NNE 13.8 mph - N/A   Mostly Cloudy
5:55 PM 21.2 °F 10.9 °F 12.2 °F 68% 30.35 in 10.0 mi North 9.2 mph - N/A   Partly Cloudy
6:15 PM 19.4 °F 11.5 °F 10.4 °F 68% 30.35 in 10.0 mi North 5.8 mph - N/A   Clear
6:35 PM 17.6 °F 10.7 °F 12.2 °F 79% 30.34 in 10.0 mi NNE 4.6 mph - N/A   Clear
6:55 PM 17.6 °F 9.3 °F 12.2 °F 79% 30.36 in 10.0 mi NNE 5.8 mph - N/A   Clear
7:15 PM 19.4 °F 14.3 °F 12.2 °F 74% 30.36 in 10.0 mi NNE 3.5 mph - N/A   Clear
7:35 PM 19.4 °F 12.8 °F 12.2 °F 74% 30.35 in 10.0 mi North 4.6 mph - N/A   Clear
7:55 PM 19.4 °F 14.3 °F 14.0 °F 80% 30.37 in 10.0 mi North 3.5 mph - N/A   Clear
8:15 PM 19.4 °F - 12.2 °F 74% 30.36 in 10.0 mi Calm Calm - N/A   Clear
8:35 PM 19.4 °F - 12.2 °F 74% 30.36 in 10.0 mi Calm Calm - N/A   Clear
8:55 PM 19.4 °F - 12.2 °F 74% 30.36 in 10.0 mi Calm Calm - N/A   Clear
9:15 PM 19.4 °F 14.3 °F 14.0 °F 80% 30.37 in 10.0 mi North 3.5 mph - N/A   Clear
9:35 PM 19.4 °F 12.8 °F 15.8 °F 86% 30.37 in 10.0 mi North 4.6 mph - N/A   Clear
9:55 PM 17.6 °F 9.3 °F 14.0 °F 86% 30.38 in 10.0 mi North 5.8 mph - N/A   Clear
10:15 PM 17.6 °F 10.7 °F 14.0 °F 86% 30.39 in 10.0 mi WNW 4.6 mph - N/A   Clear
10:35 PM 17.6 °F 9.3 °F 14.0 °F 86% 30.39 in 10.0 mi West 5.8 mph - N/A   Scattered Clouds
10:55 PM 19.4 °F 11.5 °F 14.0 °F 80% 30.38 in 10.0 mi WSW 5.8 mph - N/A   Overcast
11:15 PM 19.4 °F 10.4 °F 14.0 °F 80% 30.39 in 10.0 mi SW 6.9 mph - N/A   Overcast
11:35 PM 21.2 °F 11.7 °F 14.0 °F 74% 30.39 in 10.0 mi WSW 8.1 mph - N/A   Overcast
11:55 PM 21.2 °F 12.6 °F 14.0 °F 74% 30.38 in 10.0 mi West 6.9 mph - N/A   Overcast